createdAt,value
2018-10-09T00:00:21.863Z,98.30
2018-10-09T00:02:51.607Z,98.40
2018-10-09T00:05:21.368Z,98.50
2018-10-09T00:07:51.088Z,98.20
2018-10-09T00:10:20.879Z,98.40
2018-10-09T00:12:50.631Z,98.50
2018-10-09T00:15:20.335Z,98.40
2018-10-09T00:17:50.047Z,98.60
2018-10-09T00:20:24.313Z,98.60
2018-10-09T00:22:59.040Z,98.80
2018-10-09T00:25:28.809Z,98.40
2018-10-09T00:27:58.576Z,98.30
2018-10-09T00:30:28.695Z,98.30
2018-10-09T00:32:58.412Z,98.40
2018-10-09T00:35:28.109Z,98.50
2018-10-09T00:37:58.070Z,98.60
2018-10-09T00:40:27.795Z,98.70
2018-10-09T00:42:57.518Z,98.80
2018-10-09T00:45:26.706Z,98.70
2018-10-09T00:47:55.896Z,98.80
2018-10-09T00:50:25.072Z,99.10
2018-10-09T00:52:54.578Z,99.20
2018-10-09T00:55:23.759Z,99.40
2018-10-09T00:57:59.111Z,98.80
2018-10-09T01:00:28.895Z,99.00
2018-10-09T01:02:58.686Z,99.40
2018-10-09T01:05:28.422Z,99.20
2018-10-09T01:07:58.111Z,98.80
2018-10-09T01:10:27.806Z,99.10
2018-10-09T01:12:57.494Z,99.00
2018-10-09T01:15:27.246Z,98.60
2018-10-09T01:17:57.236Z,99.10
2018-10-09T01:20:31.298Z,99.20
2018-10-09T01:23:02.738Z,99.00
2018-10-09T01:25:32.760Z,99.10
2018-10-09T01:28:02.967Z,98.80
2018-10-09T01:30:33.638Z,98.60
2018-10-09T01:33:03.882Z,98.50
2018-10-09T01:35:33.923Z,98.70
2018-10-09T01:38:03.906Z,98.20
2018-10-09T01:40:33.614Z,98.50
2018-10-09T01:43:03.614Z,98.60
2018-10-09T01:45:33.326Z,98.50
2018-10-09T01:48:03.030Z,98.50
2018-10-09T01:50:33.011Z,97.90
2018-10-09T01:53:03.091Z,98.40
2018-10-09T01:55:32.803Z,98.30
2018-10-09T01:58:02.508Z,98.70
2018-10-09T02:00:32.205Z,98.70
2018-10-09T02:03:01.933Z,98.30
2018-10-09T02:05:31.897Z,97.80
2018-10-09T02:08:01.950Z,98.00
2018-10-09T02:10:31.926Z,98.70
2018-10-09T02:13:01.644Z,98.70
2018-10-09T02:15:31.323Z,98.50
2018-10-09T02:18:01.091Z,98.60
2018-10-09T02:20:30.858Z,98.10
2018-10-09T02:23:00.566Z,97.80
2018-10-09T02:25:30.331Z,97.90
2018-10-09T02:28:00.051Z,97.70
2018-10-09T02:30:29.808Z,97.80
2018-10-09T02:32:59.539Z,97.90
2018-10-09T02:35:29.272Z,98.00
2018-10-09T02:37:58.995Z,97.90
2018-10-09T02:40:28.713Z,98.20
2018-10-09T02:42:58.423Z,98.20
2018-10-09T02:45:28.331Z,98.20
2018-10-09T02:47:59.939Z,98.00
2018-10-09T02:50:30.195Z,97.70
2018-10-09T02:52:59.902Z,98.20
2018-10-09T02:55:29.676Z,98.20
2018-10-09T02:57:59.798Z,97.90
2018-10-09T03:00:29.492Z,98.10
2018-10-09T03:02:59.223Z,97.60
2018-10-09T03:05:28.920Z,98.10
2018-10-09T03:07:58.626Z,97.80
2018-10-09T03:10:28.948Z,97.40
2018-10-09T03:12:58.721Z,97.80
2018-10-09T03:15:28.428Z,98.10
2018-10-09T03:17:58.157Z,98.00
2018-10-09T03:20:27.921Z,98.10
2018-10-09T03:22:57.815Z,97.50
2018-10-09T03:25:27.511Z,97.40
2018-10-09T03:27:57.682Z,97.60
2018-10-09T03:30:27.434Z,97.20
2018-10-09T03:32:57.504Z,97.40
2018-10-09T03:35:27.374Z,97.60
2018-10-09T03:37:57.115Z,97.30
2018-10-09T03:40:26.815Z,97.20
2018-10-09T03:42:56.559Z,97.30
2018-10-09T03:45:26.635Z,97.40
2018-10-09T03:47:56.335Z,97.20
2018-10-09T03:50:26.252Z,97.50
2018-10-09T03:52:55.967Z,97.00
2018-10-09T03:55:25.678Z,97.30
2018-10-09T03:57:55.386Z,97.00
2018-10-09T04:00:25.111Z,97.50
2018-10-09T04:02:54.811Z,97.80
2018-10-09T04:05:24.535Z,97.70
2018-10-09T04:07:54.263Z,97.90
2018-10-09T04:10:23.995Z,97.90
2018-10-09T04:12:53.780Z,97.40
2018-10-09T04:15:23.530Z,97.20
2018-10-09T04:17:53.251Z,97.00
2018-10-09T04:20:23.305Z,97.30
2018-10-09T04:22:53.203Z,97.80
2018-10-09T04:25:22.898Z,98.20
2018-10-09T04:27:52.590Z,98.40
2018-10-09T04:30:22.298Z,98.70
2018-10-09T04:32:52.055Z,99.10
2018-10-09T04:35:21.774Z,98.70
2018-10-09T04:37:51.543Z,98.50
2018-10-09T04:40:21.262Z,98.50
2018-10-09T04:42:51.002Z,97.90
2018-10-09T04:45:20.738Z,97.90
2018-10-09T04:47:50.447Z,97.90
2018-10-09T04:50:20.426Z,97.50
2018-10-09T04:52:50.131Z,97.90
2018-10-09T04:55:19.810Z,97.60
2018-10-09T04:57:49.504Z,97.80
2018-10-09T05:00:19.266Z,98.60
2018-10-09T05:02:48.983Z,98.30
2018-10-09T05:05:18.727Z,98.10
2018-10-09T05:07:48.443Z,98.20
2018-10-09T05:10:18.123Z,98.30
2018-10-09T05:12:47.852Z,98.00
2018-10-09T05:15:17.569Z,98.60
2018-10-09T05:17:47.303Z,98.90
2018-10-09T05:20:17.209Z,99.30
2018-10-09T05:22:46.926Z,99.00
2018-10-09T05:25:16.647Z,99.00
2018-10-09T05:27:46.344Z,99.00
2018-10-09T05:30:16.253Z,99.10
2018-10-09T05:32:45.960Z,99.20
2018-10-09T05:35:15.887Z,99.30
2018-10-09T05:37:45.727Z,99.70
2018-10-09T05:40:15.699Z,99.40
2018-10-09T05:42:45.384Z,99.40
2018-10-09T05:45:15.119Z,99.30
2018-10-09T05:47:44.858Z,98.90
2018-10-09T05:50:15.007Z,98.70
2018-10-09T05:52:44.729Z,98.60
2018-10-09T05:55:14.582Z,98.90
2018-10-09T05:57:44.334Z,98.70
2018-10-09T06:00:14.355Z,99.00
2018-10-09T06:02:44.194Z,99.30
2018-10-09T06:05:13.874Z,99.10
2018-10-09T06:07:43.978Z,99.10
2018-10-09T06:10:13.703Z,99.00
2018-10-09T06:12:43.438Z,99.20
2018-10-09T06:15:13.114Z,98.80
2018-10-09T06:17:42.811Z,99.20
2018-10-09T06:20:12.564Z,99.30
2018-10-09T06:22:42.314Z,99.40
2018-10-09T06:25:12.028Z,99.60
2018-10-09T06:27:41.780Z,99.80
2018-10-09T06:30:11.851Z,99.60
2018-10-09T06:32:41.554Z,99.60
2018-10-09T06:35:11.300Z,99.60
2018-10-09T06:37:40.999Z,99.80
2018-10-09T06:40:10.734Z,99.50
2018-10-09T06:42:40.464Z,99.30
2018-10-09T06:45:10.380Z,99.10
2018-10-09T06:47:40.422Z,98.90
2018-10-09T06:50:10.363Z,98.80
2018-10-09T06:52:40.052Z,98.70
2018-10-09T06:55:09.802Z,98.70
2018-10-09T06:57:39.514Z,98.90
2018-10-09T07:00:09.329Z,99.10
2018-10-09T07:02:39.295Z,99.00
2018-10-09T07:05:09.186Z,99.20
2018-10-09T07:07:38.959Z,99.40
2018-10-09T07:10:09.016Z,99.40
2018-10-09T07:12:38.727Z,99.40
2018-10-09T07:15:08.802Z,99.30
2018-10-09T07:17:38.527Z,99.40
2018-10-09T07:20:08.699Z,99.60
2018-10-09T07:22:38.387Z,99.50
2018-10-09T07:25:08.091Z,99.50
2018-10-09T07:27:37.803Z,99.70
2018-10-09T07:30:08.331Z,99.90
2018-10-09T07:32:38.098Z,99.90
2018-10-09T07:35:09.019Z,99.90
2018-10-09T07:37:38.837Z,99.90
2018-10-09T07:40:09.004Z,99.90
2018-10-09T07:42:38.698Z,99.90
2018-10-09T07:45:13.999Z,99.90
2018-10-09T07:47:43.712Z,99.90
2018-10-09T07:50:13.410Z,99.90
2018-10-09T07:52:43.189Z,99.90
2018-10-09T07:55:13.353Z,99.90
2018-10-09T07:57:43.104Z,99.90
2018-10-09T08:00:12.791Z,99.90
2018-10-09T08:02:42.510Z,99.90
2018-10-09T08:05:12.239Z,99.90
2018-10-09T08:07:41.955Z,99.90
2018-10-09T08:10:11.666Z,99.90
2018-10-09T08:12:41.388Z,99.90
2018-10-09T08:15:11.103Z,99.90
2018-10-09T08:17:40.811Z,99.90
2018-10-09T08:20:10.563Z,99.90
2018-10-09T08:22:40.421Z,99.90
2018-10-09T08:25:10.266Z,99.90
2018-10-09T08:27:40.292Z,99.90
2018-10-09T08:30:10.059Z,99.90
2018-10-09T08:32:39.771Z,99.90
2018-10-09T08:35:09.643Z,99.90
2018-10-09T08:37:39.348Z,99.90
2018-10-09T08:40:09.461Z,99.90
2018-10-09T08:42:39.171Z,99.90
2018-10-09T08:45:14.634Z,99.90
2018-10-09T08:47:44.331Z,99.90
2018-10-09T08:50:14.051Z,99.90
2018-10-09T08:52:43.857Z,99.90
2018-10-09T08:55:13.654Z,99.90
2018-10-09T08:57:43.409Z,99.90
2018-10-09T09:00:13.356Z,99.90
2018-10-09T09:02:43.075Z,99.90
2018-10-09T09:05:12.832Z,99.90
2018-10-09T09:07:42.635Z,99.90
2018-10-09T09:10:12.387Z,99.90
2018-10-09T09:12:42.162Z,99.90
2018-10-09T09:15:11.932Z,99.90
2018-10-09T09:17:41.818Z,99.90
2018-10-09T09:20:11.639Z,99.90
2018-10-09T09:22:41.427Z,99.90
2018-10-09T09:25:11.159Z,99.90
2018-10-09T09:27:40.945Z,99.90
2018-10-09T09:30:10.835Z,99.90
2018-10-09T09:32:40.616Z,99.90
2018-10-09T09:35:10.334Z,99.90
2018-10-09T09:37:40.146Z,99.90
2018-10-09T09:40:09.883Z,99.90
2018-10-09T09:42:39.598Z,99.90
2018-10-09T09:45:09.339Z,99.90
2018-10-09T09:47:39.366Z,99.90
2018-10-09T09:50:09.109Z,99.90
2018-10-09T09:52:38.909Z,99.90
2018-10-09T09:55:08.866Z,99.90
2018-10-09T09:57:38.606Z,99.90
2018-10-09T10:00:12.938Z,99.90
2018-10-09T10:02:42.640Z,99.90
2018-10-09T10:05:12.700Z,99.90
2018-10-09T10:07:42.395Z,99.90
2018-10-09T10:10:12.135Z,99.90
2018-10-09T10:12:41.934Z,99.90
2018-10-09T10:15:11.670Z,99.90
2018-10-09T10:17:41.363Z,99.90
2018-10-09T10:20:11.475Z,99.90
2018-10-09T10:22:41.192Z,99.90
2018-10-09T10:25:10.947Z,99.90
2018-10-09T10:27:40.659Z,99.90
2018-10-09T10:30:10.391Z,99.90
2018-10-09T10:32:40.131Z,98.70
2018-10-09T10:35:09.844Z,98.40
2018-10-09T10:37:39.571Z,98.20
2018-10-09T10:40:09.387Z,98.00
2018-10-09T10:42:39.122Z,96.70
2018-10-09T10:45:08.855Z,96.10
2018-10-09T10:47:38.575Z,95.80
2018-10-09T10:50:08.659Z,94.60
2018-10-09T10:52:38.399Z,94.70
2018-10-09T10:55:08.300Z,94.20
2018-10-09T10:57:38.223Z,93.70
2018-10-09T11:00:08.275Z,93.90
2018-10-09T11:02:38.007Z,93.10
2018-10-09T11:05:08.411Z,92.00
2018-10-09T11:07:38.146Z,92.70
2018-10-09T11:10:08.380Z,92.30
2018-10-09T11:12:38.126Z,92.00
2018-10-09T11:15:07.872Z,91.60
2018-10-09T11:17:37.605Z,91.70
2018-10-09T11:20:07.351Z,92.10
2018-10-09T11:22:37.098Z,92.10
2018-10-09T11:25:06.873Z,92.00
2018-10-09T11:27:36.895Z,91.30
2018-10-09T11:30:07.124Z,91.00
2018-10-09T11:32:36.926Z,90.80
2018-10-09T11:35:06.823Z,90.60
2018-10-09T11:37:36.543Z,91.00
2018-10-09T11:40:06.299Z,90.80
2018-10-09T11:42:36.146Z,90.80
2018-10-09T11:45:06.127Z,89.20
2018-10-09T11:47:35.888Z,88.80
2018-10-09T11:50:06.432Z,89.20
2018-10-09T11:52:37.554Z,89.50
2018-10-09T11:55:07.392Z,89.40
2018-10-09T11:57:37.114Z,89.30
2018-10-09T12:00:08.051Z,87.00
2018-10-09T12:02:37.789Z,86.50
2018-10-09T12:05:07.959Z,87.50
2018-10-09T12:07:38.080Z,86.50
2018-10-09T12:10:08.171Z,85.50
2018-10-09T12:12:37.931Z,85.90
2018-10-09T12:15:07.703Z,85.90
2018-10-09T12:17:37.679Z,86.20
2018-10-09T12:20:07.733Z,85.50
2018-10-09T12:22:37.519Z,86.30
2018-10-09T12:25:07.239Z,84.50
2018-10-09T12:27:37.340Z,82.80
2018-10-09T12:30:07.410Z,81.70
2018-10-09T12:32:37.172Z,81.80
2018-10-09T12:35:07.092Z,81.70
2018-10-09T12:37:36.816Z,82.00
2018-10-09T12:40:06.558Z,82.50
2018-10-09T12:42:36.536Z,82.10
2018-10-09T12:45:13.557Z,81.50
2018-10-09T12:47:45.016Z,81.80
2018-10-09T12:50:15.315Z,82.20
2018-10-09T12:52:45.447Z,82.60
2018-10-09T12:55:15.364Z,82.00
2018-10-09T12:57:45.037Z,82.80
2018-10-09T13:00:14.763Z,83.00
2018-10-09T13:02:44.431Z,81.90
2018-10-09T13:05:14.133Z,82.30
2018-10-09T13:07:43.811Z,82.20
2018-10-09T13:10:13.523Z,82.00
2018-10-09T13:12:43.291Z,83.70
2018-10-09T13:15:13.050Z,82.90
2018-10-09T13:17:43.048Z,83.70
2018-10-09T13:20:12.956Z,84.40
2018-10-09T13:22:42.815Z,84.80
2018-10-09T13:25:12.943Z,84.50
2018-10-09T13:27:42.687Z,84.60
2018-10-09T13:30:12.395Z,85.10
2018-10-09T13:32:42.397Z,85.50
2018-10-09T13:35:12.095Z,85.70
2018-10-09T13:37:41.811Z,86.40
2018-10-09T13:40:11.527Z,85.80
2018-10-09T13:42:41.228Z,85.50
2018-10-09T13:45:10.950Z,85.40
2018-10-09T13:47:40.790Z,84.10
2018-10-09T13:50:10.554Z,84.70
2018-10-09T13:52:40.284Z,85.40
2018-10-09T13:55:09.982Z,86.20
2018-10-09T13:57:40.435Z,85.70
2018-10-09T14:00:10.179Z,85.70
2018-10-09T14:02:39.926Z,85.10
2018-10-09T14:05:09.649Z,85.30
2018-10-09T14:07:39.355Z,85.70
2018-10-09T14:10:09.497Z,85.60
2018-10-09T14:12:39.407Z,85.90
2018-10-09T14:15:11.651Z,86.60
2018-10-09T14:17:43.251Z,86.10
2018-10-09T14:20:13.235Z,86.20
2018-10-09T14:22:42.943Z,86.20
2018-10-09T14:25:13.318Z,86.40
2018-10-09T14:27:43.106Z,86.50
2018-10-09T14:30:13.407Z,86.80
2018-10-09T14:32:43.160Z,87.70
2018-10-09T14:35:12.831Z,87.50
2018-10-09T14:37:42.518Z,87.20
2018-10-09T14:40:12.199Z,86.80
2018-10-09T14:42:41.894Z,87.10
2018-10-09T14:45:17.447Z,87.90
2018-10-09T14:47:47.156Z,88.10
2018-10-09T14:50:16.814Z,88.80
2018-10-09T14:52:46.527Z,88.50
2018-10-09T14:55:16.221Z,89.30
2018-10-09T14:57:45.895Z,89.80
2018-10-09T15:00:15.603Z,90.10
2018-10-09T15:02:45.263Z,90.20
2018-10-09T15:05:14.945Z,90.40
2018-10-09T15:07:44.634Z,90.70
2018-10-09T15:10:14.335Z,90.30
2018-10-09T15:12:44.411Z,90.50
2018-10-09T15:15:14.083Z,90.60
2018-10-09T15:17:43.744Z,90.70
2018-10-09T15:20:13.667Z,91.10
2018-10-09T15:22:43.339Z,91.20
2018-10-09T15:25:13.062Z,91.30
2018-10-09T15:27:42.828Z,91.40
2018-10-09T15:30:12.501Z,91.60
2018-10-09T15:32:42.200Z,91.60
2018-10-09T15:35:11.862Z,91.50
2018-10-09T15:37:41.548Z,91.50
2018-10-09T15:40:11.284Z,91.70
2018-10-09T15:42:41.024Z,91.60
2018-10-09T15:45:16.492Z,91.60
2018-10-09T15:47:46.166Z,91.70
2018-10-09T15:50:15.871Z,91.70
2018-10-09T15:52:45.660Z,91.70
2018-10-09T15:55:15.815Z,91.80
2018-10-09T15:57:45.504Z,91.80
2018-10-09T16:00:15.523Z,92.00
2018-10-09T16:02:45.275Z,92.00
2018-10-09T16:05:14.951Z,92.10
2018-10-09T16:07:44.672Z,92.10
2018-10-09T16:10:14.358Z,92.10
2018-10-09T16:12:44.063Z,92.30
2018-10-09T16:15:13.731Z,92.30
2018-10-09T16:17:43.420Z,92.40
2018-10-09T16:20:13.152Z,92.50
2018-10-09T16:22:42.834Z,92.60
2018-10-09T16:25:12.528Z,92.60
2018-10-09T16:27:42.179Z,92.70
2018-10-09T16:30:12.159Z,92.90
2018-10-09T16:32:41.951Z,92.90
2018-10-09T16:35:12.088Z,93.00
2018-10-09T16:37:41.839Z,93.20
2018-10-09T16:40:12.011Z,93.20
2018-10-09T16:42:41.699Z,93.30
2018-10-09T16:45:11.411Z,93.50
2018-10-09T16:47:41.104Z,93.70
2018-10-09T16:50:10.820Z,93.90
2018-10-09T16:52:40.483Z,94.00
2018-10-09T16:55:10.229Z,94.10
2018-10-09T16:57:40.032Z,94.10
2018-10-09T17:00:09.759Z,94.30
2018-10-09T17:02:39.531Z,94.40
2018-10-09T17:05:09.203Z,94.60
2018-10-09T17:07:38.928Z,94.90
2018-10-09T17:10:08.988Z,94.80
2018-10-09T17:12:38.739Z,94.80
2018-10-09T17:15:08.531Z,95.00
2018-10-09T17:17:38.391Z,95.00
2018-10-09T17:20:08.451Z,94.90
2018-10-09T17:22:38.187Z,95.00
2018-10-09T17:25:08.180Z,95.10
2018-10-09T17:27:37.915Z,95.20
2018-10-09T17:30:08.240Z,95.30
2018-10-09T17:32:38.440Z,95.50
2018-10-09T17:35:08.277Z,95.70
2018-10-09T17:37:38.794Z,95.60
2018-10-09T17:40:08.829Z,95.60
2018-10-09T17:42:38.646Z,95.80
2018-10-09T17:45:13.961Z,95.80
2018-10-09T17:47:44.222Z,95.80
2018-10-09T17:50:15.335Z,95.80
2018-10-09T17:52:45.448Z,95.80
2018-10-09T17:55:15.521Z,95.90
2018-10-09T17:57:46.574Z,96.00
2018-10-09T18:00:16.311Z,96.00
2018-10-09T18:02:46.446Z,96.10
2018-10-09T18:05:16.208Z,96.20
2018-10-09T18:07:47.322Z,96.10
2018-10-09T18:10:17.270Z,96.30
2018-10-09T18:12:47.464Z,96.50
2018-10-09T18:15:17.253Z,96.30
2018-10-09T18:17:47.295Z,96.30
2018-10-09T18:20:17.142Z,96.50
2018-10-09T18:22:47.091Z,96.50
2018-10-09T18:25:16.853Z,96.60
2018-10-09T18:27:46.562Z,97.00
2018-10-09T18:30:16.393Z,96.90
2018-10-09T18:32:46.292Z,96.90
2018-10-09T18:35:16.548Z,96.80
2018-10-09T18:37:46.460Z,96.90
2018-10-09T18:40:16.647Z,97.00
2018-10-09T18:42:46.495Z,97.20
2018-10-09T18:45:19.232Z,97.60
2018-10-09T18:47:49.168Z,97.30
2018-10-09T18:50:19.294Z,97.40
2018-10-09T18:52:49.437Z,97.30
2018-10-09T18:55:19.327Z,97.20
2018-10-09T18:57:49.472Z,97.30
2018-10-09T19:00:19.618Z,97.70
2018-10-09T19:02:49.639Z,97.10
2018-10-09T19:05:19.581Z,96.70
2018-10-09T19:07:49.428Z,96.90
2018-10-09T19:10:19.295Z,96.90
2018-10-09T19:12:49.316Z,96.90
2018-10-09T19:15:19.395Z,96.70
2018-10-09T19:17:49.470Z,96.90
2018-10-09T19:20:19.459Z,97.30
2018-10-09T19:22:49.291Z,97.60
2018-10-09T19:25:20.507Z,97.50
2018-10-09T19:27:50.280Z,98.00
2018-10-09T19:30:20.336Z,98.30
2018-10-09T19:32:50.441Z,98.70
2018-10-09T19:35:20.401Z,98.70
2018-10-09T19:37:50.203Z,98.50
2018-10-09T19:40:20.009Z,98.60
2018-10-09T19:42:50.088Z,98.60
2018-10-09T19:45:19.871Z,98.60
2018-10-09T19:47:49.743Z,98.70
2018-10-09T19:50:20.087Z,98.80
2018-10-09T19:52:50.178Z,98.90
2018-10-09T19:55:20.560Z,99.10
2018-10-09T19:57:50.651Z,99.20
2018-10-09T20:00:20.652Z,99.20
2018-10-09T20:02:50.771Z,99.40
2018-10-09T20:05:20.536Z,99.20
2018-10-09T20:07:50.864Z,99.20
2018-10-09T20:10:21.021Z,98.90
2018-10-09T20:12:50.759Z,98.90
2018-10-09T20:15:20.510Z,98.80
2018-10-09T20:17:50.233Z,98.60
2018-10-09T20:20:19.953Z,98.80
2018-10-09T20:22:49.745Z,98.70
2018-10-09T20:25:19.463Z,98.40
2018-10-09T20:27:49.267Z,98.50
2018-10-09T20:30:19.007Z,98.50
2018-10-09T20:32:48.767Z,98.20
2018-10-09T20:35:18.486Z,98.30
2018-10-09T20:37:48.520Z,98.20
2018-10-09T20:40:18.551Z,98.30
2018-10-09T20:42:48.647Z,98.30
2018-10-09T20:45:18.383Z,98.70
2018-10-09T20:47:48.445Z,98.70
2018-10-09T20:50:18.491Z,98.50
2018-10-09T20:52:48.199Z,98.40
2018-10-09T20:55:17.916Z,98.60
2018-10-09T20:57:47.619Z,98.40
2018-10-09T21:00:17.366Z,98.60
2018-10-09T21:02:47.074Z,98.90
2018-10-09T21:05:16.794Z,98.80
2018-10-09T21:07:46.666Z,99.00
2018-10-09T21:10:16.367Z,99.10
2018-10-09T21:12:46.069Z,99.00
2018-10-09T21:15:15.780Z,98.90
2018-10-09T21:17:45.601Z,99.00
2018-10-09T21:20:15.419Z,99.20
2018-10-09T21:22:45.123Z,99.40
2018-10-09T21:25:14.857Z,99.70
2018-10-09T21:27:44.787Z,99.70
2018-10-09T21:30:14.856Z,99.80
2018-10-09T21:32:44.561Z,99.90
2018-10-09T21:35:14.333Z,99.90
2018-10-09T21:37:44.101Z,99.90
2018-10-09T21:40:13.986Z,99.90
2018-10-09T21:42:43.659Z,99.90
2018-10-09T21:45:13.367Z,99.90
2018-10-09T21:47:48.547Z,99.90
2018-10-09T21:50:18.256Z,99.90
2018-10-09T21:52:47.959Z,99.90
2018-10-09T21:55:17.667Z,99.90
2018-10-09T21:57:47.420Z,99.90
2018-10-09T22:00:17.194Z,99.90
2018-10-09T22:02:46.871Z,99.90
2018-10-09T22:05:16.610Z,99.90
2018-10-09T22:07:46.355Z,99.90
2018-10-09T22:10:16.079Z,99.90
2018-10-09T22:12:45.772Z,99.90
2018-10-09T22:15:15.522Z,99.90
2018-10-09T22:17:45.243Z,99.90
2018-10-09T22:20:15.028Z,99.90
2018-10-09T22:22:45.119Z,99.90
2018-10-09T22:25:14.853Z,99.90
2018-10-09T22:27:44.611Z,99.90
2018-10-09T22:30:14.334Z,99.90
2018-10-09T22:32:43.995Z,99.90
2018-10-09T22:35:13.740Z,99.90
2018-10-09T22:37:43.449Z,99.90
2018-10-09T22:40:13.178Z,99.90
2018-10-09T22:42:42.882Z,99.90
2018-10-09T22:45:12.648Z,99.90
2018-10-09T22:47:42.491Z,99.90
2018-10-09T22:50:12.397Z,99.90
2018-10-09T22:52:42.102Z,99.90
2018-10-09T22:55:11.852Z,99.90
2018-10-09T22:57:41.940Z,99.90
2018-10-09T23:00:11.726Z,99.90
2018-10-09T23:02:41.435Z,99.90
2018-10-09T23:05:11.212Z,99.90
2018-10-09T23:07:41.428Z,99.90
2018-10-09T23:10:11.247Z,99.90
2018-10-09T23:12:40.954Z,99.90
2018-10-09T23:15:10.699Z,99.90
2018-10-09T23:17:40.416Z,99.90
2018-10-09T23:20:10.140Z,99.90
2018-10-09T23:22:39.936Z,99.90
2018-10-09T23:25:09.932Z,99.90
2018-10-09T23:27:39.692Z,99.90
2018-10-09T23:30:09.847Z,99.90
2018-10-09T23:32:39.576Z,99.90
2018-10-09T23:35:09.295Z,99.90
2018-10-09T23:37:39.016Z,99.90
2018-10-09T23:40:09.047Z,99.90
2018-10-09T23:42:42.194Z,99.90
2018-10-09T23:45:12.045Z,99.90
2018-10-09T23:47:41.755Z,99.90
2018-10-09T23:50:11.533Z,99.90
2018-10-09T23:52:41.248Z,99.90
2018-10-09T23:55:10.971Z,99.90
2018-10-09T23:57:40.698Z,99.90
